createdAt,value
2018-09-01T00:00:15.551Z,0.00
2018-09-01T00:01:15.528Z,0.00
2018-09-01T00:02:15.508Z,0.00
2018-09-01T00:03:15.491Z,0.00
2018-09-01T00:04:15.483Z,0.00
2018-09-01T00:05:15.456Z,0.00
2018-09-01T00:06:15.443Z,0.00
2018-09-01T00:07:15.422Z,0.00
2018-09-01T00:08:15.402Z,0.00
2018-09-01T00:09:15.386Z,0.00
2018-09-01T00:10:15.368Z,0.00
2018-09-01T00:11:15.384Z,0.00
2018-09-01T00:12:15.330Z,0.00
2018-09-01T00:13:15.313Z,0.00
2018-09-01T00:14:15.296Z,0.00
2018-09-01T00:15:15.279Z,0.00
2018-09-01T00:16:15.268Z,0.00
2018-09-01T00:17:15.245Z,0.00
2018-09-01T00:18:15.232Z,0.00
2018-09-01T00:19:15.207Z,0.00
2018-09-01T00:20:15.188Z,0.00
2018-09-01T00:21:15.170Z,0.00
2018-09-01T00:22:15.157Z,0.00
2018-09-01T00:23:15.139Z,0.00
2018-09-01T00:24:15.118Z,0.00
2018-09-01T00:25:15.100Z,0.00
2018-09-01T00:26:15.085Z,0.00
2018-09-01T00:27:15.065Z,0.00
2018-09-01T00:28:15.047Z,0.00
2018-09-01T00:29:15.029Z,0.00
2018-09-01T00:30:15.015Z,0.00
2018-09-01T00:31:15.000Z,0.00
2018-09-01T00:32:14.975Z,0.00
2018-09-01T00:33:14.958Z,0.00
2018-09-01T00:34:14.938Z,0.00
2018-09-01T00:35:14.930Z,0.00
2018-09-01T00:36:14.903Z,0.00
2018-09-01T00:37:14.903Z,0.00
2018-09-01T00:38:14.866Z,0.00
2018-09-01T00:39:14.849Z,0.00
2018-09-01T00:40:14.843Z,0.00
2018-09-01T00:41:14.814Z,0.00
2018-09-01T00:42:14.801Z,0.00
2018-09-01T00:43:14.784Z,0.00
2018-09-01T00:44:14.763Z,0.00
2018-09-01T00:45:14.746Z,0.00
2018-09-01T00:46:14.725Z,0.00
2018-09-01T00:47:14.708Z,0.00
2018-09-01T00:48:14.686Z,0.00
2018-09-01T00:49:14.669Z,0.00
2018-09-01T00:50:14.652Z,0.00
2018-09-01T00:51:14.633Z,0.00
2018-09-01T00:52:14.614Z,0.00
2018-09-01T00:53:14.599Z,0.00
2018-09-01T00:54:14.588Z,0.00
2018-09-01T00:55:14.561Z,0.00
2018-09-01T00:56:14.543Z,0.00
2018-09-01T00:57:14.524Z,0.00
2018-09-01T00:58:14.505Z,0.00
2018-09-01T00:59:14.491Z,0.00
2018-09-01T01:00:14.472Z,0.00
2018-09-01T01:01:14.456Z,0.00
2018-09-01T01:02:14.431Z,0.00
2018-09-01T01:03:14.416Z,0.00
2018-09-01T01:04:14.395Z,0.00
2018-09-01T01:05:14.377Z,0.00
2018-09-01T01:06:14.358Z,0.00
2018-09-01T01:07:14.343Z,0.00
2018-09-01T01:08:14.321Z,0.00
2018-09-01T01:09:14.309Z,0.00
2018-09-01T01:10:14.290Z,0.00
2018-09-01T01:11:14.273Z,0.00
2018-09-01T01:12:14.248Z,0.00
2018-09-01T01:13:14.231Z,0.00
2018-09-01T01:14:14.218Z,0.00
2018-09-01T01:15:14.193Z,0.00
2018-09-01T01:16:14.176Z,0.00
2018-09-01T01:17:14.164Z,0.00
2018-09-01T01:18:14.139Z,0.00
2018-09-01T01:19:14.123Z,0.00
2018-09-01T01:20:14.108Z,0.00
2018-09-01T01:21:14.086Z,0.00
2018-09-01T01:22:14.068Z,0.00
2018-09-01T01:23:14.048Z,0.00
2018-09-01T01:24:14.030Z,0.00
2018-09-01T01:25:14.011Z,0.00
2018-09-01T01:26:13.992Z,0.00
2018-09-01T01:27:13.973Z,0.00
2018-09-01T01:28:13.956Z,0.00
2018-09-01T01:29:13.945Z,0.00
2018-09-01T01:30:13.919Z,0.00
2018-09-01T01:31:13.906Z,0.00
2018-09-01T01:32:13.881Z,0.00
2018-09-01T01:33:13.869Z,0.00
2018-09-01T01:34:13.844Z,0.00
2018-09-01T01:35:13.825Z,0.00
2018-09-01T01:36:13.805Z,0.00
2018-09-01T01:37:13.788Z,0.00
2018-09-01T01:38:13.792Z,0.00
2018-09-01T01:39:13.751Z,0.00
2018-09-01T01:40:13.733Z,0.00
2018-09-01T01:41:13.719Z,0.00
2018-09-01T01:42:13.701Z,0.00
2018-09-01T01:43:13.677Z,0.00
2018-09-01T01:44:13.661Z,0.00
2018-09-01T01:45:13.639Z,0.00
2018-09-01T01:46:13.621Z,0.00
2018-09-01T01:47:13.612Z,0.00
2018-09-01T01:48:13.590Z,0.00
2018-09-01T01:49:13.566Z,0.00
2018-09-01T01:50:13.548Z,0.00
2018-09-01T01:51:13.530Z,0.00
2018-09-01T01:52:13.511Z,0.00
2018-09-01T01:53:13.503Z,0.00
2018-09-01T01:54:13.475Z,0.00
2018-09-01T01:55:13.456Z,0.00
2018-09-01T01:56:13.434Z,0.00
2018-09-01T01:57:13.417Z,0.00
2018-09-01T01:58:13.409Z,0.00
2018-09-01T01:59:13.388Z,0.00
2018-09-01T02:00:13.366Z,0.00
2018-09-01T02:01:13.342Z,0.00
2018-09-01T02:02:13.330Z,0.00
2018-09-01T02:03:13.306Z,0.00
2018-09-01T02:04:13.294Z,0.00
2018-09-01T02:05:13.270Z,0.00
2018-09-01T02:06:13.252Z,0.00
2018-09-01T02:07:13.236Z,0.00
2018-09-01T02:08:13.211Z,0.00
2018-09-01T02:09:13.191Z,0.00
2018-09-01T02:10:13.173Z,0.00
2018-09-01T02:11:13.166Z,0.00
2018-09-01T02:12:13.136Z,0.00
2018-09-01T02:13:13.117Z,0.00
2018-09-01T02:14:13.104Z,0.00
2018-09-01T02:15:13.085Z,0.00
2018-09-01T02:16:13.062Z,0.00
2018-09-01T02:17:13.047Z,0.00
2018-09-01T02:18:13.027Z,0.00
2018-09-01T02:19:13.007Z,0.00
2018-09-01T02:20:12.987Z,0.00
2018-09-01T02:21:12.970Z,0.00
2018-09-01T02:22:12.949Z,0.00
2018-09-01T02:23:12.932Z,0.00
2018-09-01T02:24:12.909Z,0.00
2018-09-01T02:25:12.892Z,0.00
2018-09-01T02:26:12.877Z,0.00
2018-09-01T02:27:12.856Z,0.00
2018-09-01T02:28:12.838Z,0.00
2018-09-01T02:29:12.823Z,0.00
2018-09-01T02:30:12.797Z,0.00
2018-09-01T02:31:12.783Z,0.00
2018-09-01T02:32:12.761Z,0.00
2018-09-01T02:33:12.740Z,0.00
2018-09-01T02:34:12.726Z,0.00
2018-09-01T02:35:12.704Z,0.00
2018-09-01T02:36:12.697Z,0.00
2018-09-01T02:37:12.666Z,0.00
2018-09-01T02:38:12.651Z,0.00
2018-09-01T02:39:12.636Z,0.00
2018-09-01T02:40:12.638Z,0.00
2018-09-01T02:41:12.593Z,0.00
2018-09-01T02:42:12.573Z,0.00
2018-09-01T02:43:12.554Z,0.00
2018-09-01T02:44:12.533Z,0.00
2018-09-01T02:45:12.519Z,0.00
2018-09-01T02:46:12.497Z,0.00
2018-09-01T02:47:12.478Z,0.00
2018-09-01T02:48:12.458Z,0.00
2018-09-01T02:49:12.447Z,0.00
2018-09-01T02:50:12.426Z,0.00
2018-09-01T02:51:12.403Z,0.00
2018-09-01T02:52:12.384Z,0.00
2018-09-01T02:53:12.365Z,0.00
2018-09-01T02:54:12.345Z,0.00
2018-09-01T02:55:12.329Z,0.00
2018-09-01T02:56:12.312Z,0.00
2018-09-01T02:57:12.287Z,0.00
2018-09-01T02:58:12.273Z,0.00
2018-09-01T02:59:12.251Z,0.00
2018-09-01T03:00:12.239Z,0.00
2018-09-01T03:01:12.219Z,0.00
2018-09-01T03:02:12.199Z,0.00
2018-09-01T03:03:12.185Z,0.00
2018-09-01T03:04:12.162Z,0.00
2018-09-01T03:05:12.139Z,0.00
2018-09-01T03:06:12.125Z,0.00
2018-09-01T03:07:12.102Z,0.00
2018-09-01T03:08:12.080Z,0.00
2018-09-01T03:09:12.063Z,0.00
2018-09-01T03:10:12.041Z,0.00
2018-09-01T03:11:12.022Z,0.00
2018-09-01T03:12:12.003Z,0.00
2018-09-01T03:13:11.984Z,0.00
2018-09-01T03:14:11.964Z,0.00
2018-09-01T03:15:11.945Z,0.00
2018-09-01T03:16:11.925Z,0.00
2018-09-01T03:17:11.911Z,0.00
2018-09-01T03:18:11.887Z,0.00
2018-09-01T03:19:11.882Z,0.00
2018-09-01T03:20:11.849Z,0.00
2018-09-01T03:21:11.832Z,0.00
2018-09-01T03:22:11.824Z,0.00
2018-09-01T03:23:11.795Z,0.00
2018-09-01T03:24:11.777Z,0.00
2018-09-01T03:25:11.757Z,0.00
2018-09-01T03:26:11.741Z,0.00
2018-09-01T03:27:11.720Z,0.00
2018-09-01T03:28:11.700Z,0.00
2018-09-01T03:29:11.678Z,0.00
2018-09-01T03:30:11.660Z,0.00
2018-09-01T03:31:11.643Z,0.00
2018-09-01T03:32:11.621Z,0.00
2018-09-01T03:33:11.601Z,0.00
2018-09-01T03:34:11.585Z,0.00
2018-09-01T03:35:11.566Z,0.00
2018-09-01T03:36:11.545Z,0.00
2018-09-01T03:37:11.531Z,0.00
2018-09-01T03:38:11.508Z,0.00
2018-09-01T03:39:11.489Z,0.00
2018-09-01T03:40:11.466Z,0.00
2018-09-01T03:41:11.449Z,0.00
2018-09-01T03:42:11.434Z,0.00
2018-09-01T03:43:11.414Z,0.00
2018-09-01T03:44:11.390Z,0.00
2018-09-01T03:45:11.372Z,0.00
2018-09-01T03:46:11.354Z,0.00
2018-09-01T03:47:11.336Z,0.00
2018-09-01T03:48:11.317Z,0.00
2018-09-01T03:49:11.297Z,0.00
2018-09-01T03:50:11.277Z,0.00
2018-09-01T03:51:11.261Z,0.00
2018-09-01T03:52:11.240Z,0.00
2018-09-01T03:53:11.220Z,0.00
2018-09-01T03:54:11.201Z,0.00
2018-09-01T03:55:11.182Z,0.00
2018-09-01T03:56:11.161Z,0.00
2018-09-01T03:57:11.142Z,0.00
2018-09-01T03:58:11.123Z,0.00
2018-09-01T03:59:11.105Z,0.00
2018-09-01T04:00:11.084Z,0.00
2018-09-01T04:01:11.065Z,0.00
2018-09-01T04:02:11.046Z,0.00
2018-09-01T04:03:11.027Z,0.00
2018-09-01T04:04:11.006Z,0.00
2018-09-01T04:05:10.993Z,0.00
2018-09-01T04:06:10.972Z,0.00
2018-09-01T04:07:10.951Z,0.00
2018-09-01T04:08:10.930Z,0.00
2018-09-01T04:09:10.913Z,0.00
2018-09-01T04:10:10.893Z,0.00
2018-09-01T04:11:10.874Z,0.00
2018-09-01T04:12:10.853Z,0.00
2018-09-01T04:13:10.834Z,0.00
2018-09-01T04:14:10.814Z,0.00
2018-09-01T04:15:10.796Z,0.00
2018-09-01T04:16:10.774Z,0.00
2018-09-01T04:17:10.761Z,0.00
2018-09-01T04:18:10.736Z,0.00
2018-09-01T04:19:10.717Z,0.00
2018-09-01T04:20:10.702Z,0.00
2018-09-01T04:21:10.680Z,0.00
2018-09-01T04:22:10.660Z,4.00
2018-09-01T04:23:10.642Z,0.00
2018-09-01T04:24:10.628Z,0.00
2018-09-01T04:25:10.601Z,4.00
2018-09-01T04:26:10.582Z,4.00
2018-09-01T04:27:10.564Z,0.00
2018-09-01T04:28:10.542Z,4.00
2018-09-01T04:29:10.525Z,4.00
2018-09-01T04:30:10.506Z,4.00
2018-09-01T04:31:10.487Z,4.00
2018-09-01T04:32:10.574Z,4.00
2018-09-01T04:33:10.448Z,8.00
2018-09-01T04:34:10.428Z,4.00
2018-09-01T04:35:10.409Z,8.00
2018-09-01T04:36:10.388Z,4.00
2018-09-01T04:37:10.372Z,8.00
2018-09-01T04:38:10.351Z,8.00
2018-09-01T04:39:10.331Z,8.00
2018-09-01T04:40:10.311Z,8.00
2018-09-01T04:41:10.294Z,8.00
2018-09-01T04:42:10.275Z,12.00
2018-09-01T04:43:10.254Z,12.00
2018-09-01T04:44:10.232Z,12.00
2018-09-01T04:45:10.213Z,16.00
2018-09-01T04:46:10.199Z,16.00
2018-09-01T04:47:10.269Z,16.00
2018-09-01T04:48:10.157Z,20.00
2018-09-01T04:49:10.142Z,20.00
2018-09-01T04:50:10.120Z,20.00
2018-09-01T04:51:10.098Z,24.00
2018-09-01T04:52:10.079Z,28.00
2018-09-01T04:53:10.060Z,28.00
2018-09-01T04:54:10.038Z,28.00
2018-09-01T04:55:10.024Z,32.00
2018-09-01T04:56:10.006Z,32.00
2018-09-01T04:57:09.982Z,36.00
2018-09-01T04:58:09.963Z,36.00
2018-09-01T04:59:09.943Z,36.00
2018-09-01T05:00:09.923Z,40.00
2018-09-01T05:01:10.120Z,44.00
2018-09-01T05:02:09.885Z,48.00
2018-09-01T05:03:09.867Z,48.00
2018-09-01T05:04:09.847Z,48.00
2018-09-01T05:05:09.831Z,52.00
2018-09-01T05:06:09.808Z,52.00
2018-09-01T05:07:09.790Z,56.00
2018-09-01T05:08:09.769Z,60.00
2018-09-01T05:09:09.752Z,64.00
2018-09-01T05:10:09.732Z,64.00
2018-09-01T05:11:09.710Z,68.00
2018-09-01T05:12:09.693Z,68.00
2018-09-01T05:13:09.671Z,68.00
2018-09-01T05:14:09.653Z,72.00
2018-09-01T05:15:09.633Z,72.00
2018-09-01T05:16:09.614Z,80.00
2018-09-01T05:17:09.590Z,80.00
2018-09-01T05:18:09.573Z,80.00
2018-09-01T05:19:09.552Z,84.00
2018-09-01T05:20:09.533Z,84.00
2018-09-01T05:21:09.521Z,92.00
2018-09-01T05:22:09.497Z,92.00
2018-09-01T05:23:09.475Z,96.00
2018-09-01T05:24:09.463Z,100.00
2018-09-01T05:25:09.435Z,100.00
2018-09-01T05:26:09.420Z,104.00
2018-09-01T05:27:09.417Z,104.00
2018-09-01T05:28:09.378Z,108.00
2018-09-01T05:29:09.369Z,108.00
2018-09-01T05:30:09.342Z,116.00
2018-09-01T05:31:09.320Z,116.00
2018-09-01T05:32:09.299Z,116.00
2018-09-01T05:33:09.288Z,120.00
2018-09-01T05:34:09.260Z,120.00
2018-09-01T05:35:09.241Z,124.00
2018-09-01T05:36:09.225Z,128.00
2018-09-01T05:37:09.213Z,128.00
2018-09-01T05:38:09.183Z,128.00
2018-09-01T05:39:09.163Z,132.00
2018-09-01T05:40:09.146Z,132.00
2018-09-01T05:41:09.122Z,136.00
2018-09-01T05:42:09.107Z,140.00
2018-09-01T05:43:09.084Z,140.00
2018-09-01T05:44:09.073Z,144.00
2018-09-01T05:45:09.044Z,144.00
2018-09-01T05:46:09.026Z,148.00
2018-09-01T05:47:09.007Z,152.00
2018-09-01T05:48:08.986Z,152.00
2018-09-01T05:49:08.966Z,156.00
2018-09-01T05:50:08.946Z,156.00
2018-09-01T05:51:08.928Z,160.00
2018-09-01T05:52:08.907Z,164.00
2018-09-01T05:53:08.891Z,160.00
2018-09-01T05:54:08.872Z,164.00
2018-09-01T05:55:08.853Z,164.00
2018-09-01T05:56:08.833Z,168.00
2018-09-01T05:57:08.812Z,168.00
2018-09-01T05:58:08.800Z,176.00
2018-09-01T05:59:08.773Z,176.00
2018-09-01T06:00:08.753Z,176.00
2018-09-01T06:01:08.743Z,180.00
2018-09-01T06:02:08.714Z,180.00
2018-09-01T06:03:08.695Z,184.00
2018-09-01T06:04:08.676Z,184.00
2018-09-01T06:05:08.660Z,188.00
2018-09-01T06:06:08.741Z,188.00
2018-09-01T06:07:08.623Z,192.00
2018-09-01T06:08:08.596Z,192.00
2018-09-01T06:09:08.582Z,192.00
2018-09-01T06:10:08.563Z,196.00
2018-09-01T06:11:08.541Z,196.00
2018-09-01T06:12:08.521Z,200.00
2018-09-01T06:13:08.500Z,200.00
2018-09-01T06:14:08.481Z,204.00
2018-09-01T06:15:08.466Z,200.00
2018-09-01T06:16:08.445Z,204.00
2018-09-01T06:17:08.425Z,204.00
2018-09-01T06:18:08.413Z,208.00
2018-09-01T06:19:08.419Z,208.00
2018-09-01T06:20:08.367Z,212.00
2018-09-01T06:21:08.349Z,212.00
2018-09-01T06:22:08.333Z,216.00
2018-09-01T06:23:08.309Z,216.00
2018-09-01T06:24:08.296Z,216.00
2018-09-01T06:25:08.275Z,220.00
2018-09-01T06:26:08.250Z,224.00
2018-09-01T06:27:08.234Z,228.00
2018-09-01T06:28:08.214Z,232.00
2018-09-01T06:29:08.195Z,236.00
2018-09-01T06:30:08.195Z,240.00
2018-09-01T06:31:08.155Z,244.00
2018-09-01T06:32:08.135Z,248.00
2018-09-01T06:33:08.125Z,252.00
2018-09-01T06:34:08.098Z,252.00
2018-09-01T06:35:08.080Z,256.00
2018-09-01T06:36:08.060Z,260.00
2018-09-01T06:37:08.041Z,264.00
2018-09-01T06:38:08.021Z,264.00
2018-09-01T06:39:08.001Z,272.00
2018-09-01T06:40:07.989Z,280.00
2018-09-01T06:41:07.964Z,280.00
2018-09-01T06:42:07.943Z,288.00
2018-09-01T06:43:07.995Z,288.00
2018-09-01T06:44:07.915Z,296.00
2018-09-01T06:45:07.887Z,304.00
2018-09-01T06:46:07.871Z,308.00
2018-09-01T06:47:07.848Z,316.00
2018-09-01T06:48:07.830Z,324.00
2018-09-01T06:49:07.811Z,332.00
2018-09-01T06:50:07.793Z,340.00
2018-09-01T06:51:07.774Z,344.00
2018-09-01T06:52:07.753Z,356.00
2018-09-01T06:53:07.734Z,364.00
2018-09-01T06:54:07.720Z,372.00
2018-09-01T06:55:07.698Z,384.00
2018-09-01T06:56:07.677Z,396.00
2018-09-01T06:57:07.660Z,408.00
2018-09-01T06:58:07.641Z,416.00
2018-09-01T06:59:07.624Z,424.00
2018-09-01T07:00:07.607Z,432.00
2018-09-01T07:01:07.592Z,444.00
2018-09-01T07:02:07.580Z,456.00
2018-09-01T07:03:07.551Z,468.00
2018-09-01T07:04:07.531Z,476.00
2018-09-01T07:05:07.513Z,484.00
2018-09-01T07:06:07.493Z,496.00
2018-09-01T07:07:07.476Z,504.00
2018-09-01T07:08:07.454Z,512.00
2018-09-01T07:09:07.435Z,520.00
2018-09-01T07:10:07.416Z,528.00
2018-09-01T07:11:07.406Z,540.00
2018-09-01T07:12:07.380Z,548.00
2018-09-01T07:13:07.364Z,564.00
2018-09-01T07:14:07.355Z,580.00
2018-09-01T07:15:07.332Z,600.00
2018-09-01T07:16:07.307Z,620.00
2018-09-01T07:17:07.290Z,636.00
2018-09-01T07:18:07.270Z,656.00
2018-09-01T07:19:07.256Z,680.00
2018-09-01T07:20:07.230Z,700.00
2018-09-01T07:21:07.213Z,724.00
2018-09-01T07:22:07.195Z,752.00
2018-09-01T07:23:07.182Z,772.00
2018-09-01T07:24:07.155Z,792.00
2018-09-01T07:25:07.147Z,816.00
2018-09-01T07:26:07.118Z,828.00
2018-09-01T07:27:07.100Z,840.00
2018-09-01T07:28:07.089Z,856.00
2018-09-01T07:29:07.063Z,872.00
2018-09-01T07:30:07.113Z,884.00
2018-09-01T07:31:07.572Z,900.00
2018-09-01T07:32:07.007Z,904.00
2018-09-01T07:33:06.989Z,920.00
2018-09-01T07:34:06.973Z,936.00
2018-09-01T07:35:06.960Z,948.00
2018-09-01T07:36:06.933Z,952.00
2018-09-01T07:37:06.915Z,968.00
2018-09-01T07:38:06.896Z,984.00
2018-09-01T07:39:06.878Z,996.00
2018-09-01T07:40:06.859Z,1012.00
2018-09-01T07:41:06.841Z,1024.00
2018-09-01T07:42:06.822Z,1036.00
2018-09-01T07:43:06.811Z,1048.00
2018-09-01T07:44:06.786Z,1068.00
2018-09-01T07:45:06.768Z,1080.00
2018-09-01T07:46:06.748Z,1096.00
2018-09-01T07:47:06.732Z,1112.00
2018-09-01T07:48:06.721Z,1128.00
2018-09-01T07:49:06.693Z,1148.00
2018-09-01T07:50:06.739Z,1168.00
2018-09-01T07:51:06.664Z,1184.00
2018-09-01T07:52:06.640Z,1204.00
2018-09-01T07:53:06.623Z,1220.00
2018-09-01T07:54:06.602Z,1232.00
2018-09-01T07:55:06.584Z,1252.00
2018-09-01T07:56:06.595Z,1268.00
2018-09-01T07:57:06.553Z,1284.00
2018-09-01T07:58:06.533Z,1300.00
2018-09-01T07:59:06.510Z,1320.00
2018-09-01T08:00:06.492Z,1324.00
2018-09-01T08:01:06.486Z,1340.00
2018-09-01T08:02:06.455Z,1360.00
2018-09-01T08:03:06.490Z,1372.00
2018-09-01T08:04:06.426Z,1396.00
2018-09-01T08:05:06.404Z,1408.00
2018-09-01T08:06:06.384Z,1420.00
2018-09-01T08:07:06.381Z,1436.00
2018-09-01T08:08:06.353Z,1444.00
2018-09-01T08:09:06.338Z,1472.00
2018-09-01T08:10:06.312Z,1484.00
2018-09-01T08:11:06.296Z,1492.00
2018-09-01T08:12:06.278Z,1508.00
2018-09-01T08:13:06.267Z,1516.00
2018-09-01T08:14:06.350Z,1532.00
2018-09-01T08:15:06.227Z,1548.00
2018-09-01T08:16:06.214Z,1568.00
2018-09-01T08:17:06.198Z,1580.00
2018-09-01T08:18:06.177Z,1576.00
2018-09-01T08:19:06.163Z,1592.00
2018-09-01T08:20:06.136Z,1596.00
2018-09-01T08:21:06.119Z,1616.00
2018-09-01T08:22:06.106Z,1624.00
2018-09-01T08:23:06.083Z,1628.00
2018-09-01T08:24:06.063Z,1656.00
2018-09-01T08:25:06.044Z,1664.00
2018-09-01T08:26:06.074Z,1700.00
2018-09-01T08:27:06.010Z,1712.00
2018-09-01T08:28:06.000Z,1720.00
2018-09-01T08:29:05.978Z,1728.00
2018-09-01T08:30:05.955Z,1748.00
2018-09-01T08:31:05.939Z,1752.00
2018-09-01T08:32:05.934Z,1772.00
2018-09-01T08:33:05.906Z,1796.00
2018-09-01T08:34:05.901Z,1804.00
2018-09-01T08:35:05.876Z,1808.00
2018-09-01T08:36:05.855Z,1800.00
2018-09-01T08:37:05.836Z,1768.00
2018-09-01T08:38:05.817Z,1836.00
2018-09-01T08:39:05.801Z,1832.00
2018-09-01T08:40:05.845Z,1848.00
2018-09-01T08:41:05.767Z,1872.00
2018-09-01T08:42:05.760Z,1872.00
2018-09-01T08:43:05.740Z,1888.00
2018-09-01T08:44:05.713Z,1912.00
2018-09-01T08:45:05.697Z,1928.00
2018-09-01T08:46:05.681Z,1936.00
2018-09-01T08:47:05.660Z,1924.00
2018-09-01T08:48:05.648Z,1036.00
2018-09-01T08:49:05.627Z,1896.00
2018-09-01T08:50:05.613Z,1876.00
2018-09-01T08:51:05.593Z,1896.00
2018-09-01T08:52:05.575Z,948.00
2018-09-01T08:53:05.564Z,860.00
2018-09-01T08:54:05.561Z,508.00
2018-09-01T08:55:05.524Z,828.00
2018-09-01T08:56:05.514Z,540.00
2018-09-01T08:57:05.489Z,1144.00
2018-09-01T08:58:05.498Z,588.00
2018-09-01T08:59:05.462Z,1580.00
2018-09-01T09:00:05.436Z,472.00
2018-09-01T09:01:05.443Z,608.00
2018-09-01T09:02:05.405Z,540.00
2018-09-01T09:03:05.388Z,1048.00
2018-09-01T09:04:05.368Z,604.00
2018-09-01T09:05:05.350Z,1784.00
2018-09-01T09:06:05.333Z,1572.00
2018-09-01T09:07:05.316Z,528.00
2018-09-01T09:08:05.313Z,1932.00
2018-09-01T09:09:05.282Z,1996.00
2018-09-01T09:10:05.266Z,2020.00
2018-09-01T09:11:05.245Z,1972.00
2018-09-01T09:12:05.229Z,516.00
2018-09-01T09:13:05.213Z,536.00
2018-09-01T09:14:05.202Z,2040.00
2018-09-01T09:15:05.179Z,2000.00
2018-09-01T09:16:05.160Z,2020.00
2018-09-01T09:17:05.143Z,1040.00
2018-09-01T09:18:05.127Z,2016.00
2018-09-01T09:19:05.135Z,900.00
2018-09-01T09:20:05.092Z,1016.00
2018-09-01T09:21:05.092Z,1632.00
2018-09-01T09:22:05.060Z,1440.00
2018-09-01T09:23:05.043Z,540.00
2018-09-01T09:24:05.022Z,544.00
2018-09-01T09:25:05.005Z,2020.00
2018-09-01T09:26:04.987Z,532.00
2018-09-01T09:27:04.976Z,880.00
2018-09-01T09:28:04.960Z,820.00
2018-09-01T09:29:04.938Z,876.00
2018-09-01T09:30:04.920Z,2056.00
2018-09-01T09:31:04.920Z,2068.00
2018-09-01T09:32:04.884Z,2004.00
2018-09-01T09:33:04.921Z,604.00
2018-09-01T09:34:04.862Z,608.00
2018-09-01T09:35:04.833Z,952.00
2018-09-01T09:36:04.820Z,456.00
2018-09-01T09:37:04.795Z,412.00
2018-09-01T09:38:04.779Z,436.00
2018-09-01T09:39:04.774Z,2056.00
2018-09-01T09:40:04.746Z,2084.00
2018-09-01T09:41:04.730Z,2104.00
2018-09-01T09:42:04.712Z,2120.00
2018-09-01T09:43:04.693Z,2156.00
2018-09-01T09:44:04.676Z,2208.00
2018-09-01T09:45:04.659Z,2216.00
2018-09-01T09:46:04.662Z,2176.00
2018-09-01T09:47:04.629Z,2184.00
2018-09-01T09:48:04.608Z,2176.00
2018-09-01T09:49:04.607Z,2156.00
2018-09-01T09:50:04.587Z,2136.00
2018-09-01T09:51:04.564Z,2132.00
2018-09-01T09:52:04.550Z,2116.00
2018-09-01T09:53:04.657Z,2120.00
2018-09-01T09:54:04.509Z,2124.00
2018-09-01T09:55:04.491Z,2132.00
2018-09-01T09:56:04.481Z,2152.00
2018-09-01T09:57:04.457Z,2160.00
2018-09-01T09:58:04.451Z,2164.00
2018-09-01T09:59:04.422Z,2172.00
2018-09-01T10:00:04.405Z,672.00
2018-09-01T10:01:04.466Z,672.00
2018-09-01T10:02:04.373Z,1112.00
2018-09-01T10:03:04.359Z,2204.00
2018-09-01T10:04:04.340Z,2204.00
2018-09-01T10:05:04.331Z,2224.00
2018-09-01T10:06:04.306Z,2248.00
2018-09-01T10:07:04.299Z,2256.00
2018-09-01T10:08:04.274Z,792.00
2018-09-01T10:09:04.261Z,760.00
2018-09-01T10:10:04.240Z,736.00
2018-09-01T10:11:04.284Z,744.00
2018-09-01T10:12:04.211Z,744.00
2018-09-01T10:13:04.204Z,692.00
2018-09-01T10:14:04.183Z,684.00
2018-09-01T10:15:04.161Z,684.00
2018-09-01T10:16:04.159Z,676.00
2018-09-01T10:17:04.123Z,1908.00
2018-09-01T10:18:04.111Z,1032.00
2018-09-01T10:19:04.092Z,888.00
2018-09-01T10:20:04.131Z,744.00
2018-09-01T10:21:04.071Z,744.00
2018-09-01T10:22:04.042Z,824.00
2018-09-01T10:23:04.030Z,2212.00
2018-09-01T10:24:04.011Z,2032.00
2018-09-01T10:25:03.991Z,1536.00
2018-09-01T10:26:03.978Z,820.00
2018-09-01T10:27:04.006Z,828.00
2018-09-01T10:28:03.953Z,828.00
2018-09-01T10:29:03.926Z,832.00
2018-09-01T10:30:03.912Z,924.00
2018-09-01T10:31:03.890Z,976.00
2018-09-01T10:32:03.872Z,928.00
2018-09-01T10:33:03.869Z,784.00
2018-09-01T10:34:03.848Z,716.00
2018-09-01T10:35:03.826Z,688.00
2018-09-01T10:36:03.808Z,676.00
2018-09-01T10:37:03.798Z,740.00
2018-09-01T10:38:03.777Z,880.00
2018-09-01T10:39:03.774Z,656.00
2018-09-01T10:40:03.744Z,648.00
2018-09-01T10:41:03.726Z,648.00
2018-09-01T10:42:03.714Z,656.00
2018-09-01T10:43:03.708Z,764.00
2018-09-01T10:44:03.674Z,736.00
2018-09-01T10:45:03.659Z,1100.00
2018-09-01T10:46:03.640Z,2032.00
2018-09-01T10:47:03.640Z,1024.00
2018-09-01T10:48:03.615Z,1072.00
2018-09-01T10:49:03.592Z,864.00
2018-09-01T10:50:03.575Z,856.00
2018-09-01T10:51:03.566Z,856.00
2018-09-01T10:52:03.539Z,852.00
2018-09-01T10:53:03.563Z,816.00
2018-09-01T10:54:03.501Z,788.00
2018-09-01T10:55:03.491Z,764.00
2018-09-01T10:56:03.472Z,748.00
2018-09-01T10:57:03.470Z,736.00
2018-09-01T10:58:03.440Z,716.00
2018-09-01T10:59:03.539Z,728.00
2018-09-01T11:00:03.402Z,780.00
2018-09-01T11:01:03.388Z,788.00
2018-09-01T11:02:03.368Z,824.00
2018-09-01T11:03:03.391Z,928.00
2018-09-01T11:04:03.345Z,1216.00
2018-09-01T11:05:03.321Z,2368.00
2018-09-01T11:06:03.298Z,2320.00
2018-09-01T11:07:03.290Z,2268.00
2018-09-01T11:08:03.279Z,2244.00
2018-09-01T11:09:03.253Z,2216.00
2018-09-01T11:10:03.244Z,2192.00
2018-09-01T11:11:03.226Z,2188.00
2018-09-01T11:12:03.203Z,2164.00
2018-09-01T11:13:03.194Z,2180.00
2018-09-01T11:14:03.178Z,2192.00
2018-09-01T11:15:03.151Z,2204.00
2018-09-01T11:16:03.135Z,2220.00
2018-09-01T11:17:03.120Z,2204.00
2018-09-01T11:18:03.109Z,2200.00
2018-09-01T11:19:03.091Z,2196.00
2018-09-01T11:20:03.122Z,2204.00
2018-09-01T11:21:03.062Z,2212.00
2018-09-01T11:22:03.051Z,2220.00
2018-09-01T11:23:03.025Z,2244.00
2018-09-01T11:24:03.013Z,2260.00
2018-09-01T11:25:02.989Z,2284.00
2018-09-01T11:26:02.987Z,2288.00
2018-09-01T11:27:02.974Z,2300.00
2018-09-01T11:28:03.035Z,2356.00
2018-09-01T11:29:02.923Z,2204.00
2018-09-01T11:30:02.910Z,2424.00
2018-09-01T11:31:02.893Z,1204.00
2018-09-01T11:32:02.878Z,880.00
2018-09-01T11:33:02.862Z,812.00
2018-09-01T11:34:02.869Z,808.00
2018-09-01T11:35:02.841Z,816.00
2018-09-01T11:36:02.838Z,836.00
2018-09-01T11:37:02.801Z,872.00
2018-09-01T11:38:02.782Z,952.00
2018-09-01T11:39:02.768Z,1128.00
2018-09-01T11:40:02.752Z,2588.00
2018-09-01T11:41:02.731Z,1556.00
2018-09-01T11:42:02.718Z,1028.00
2018-09-01T11:43:02.840Z,804.00
2018-09-01T11:44:02.691Z,2416.00
2018-09-01T11:45:02.676Z,1344.00
2018-09-01T11:46:02.655Z,940.00
2018-09-01T11:47:02.652Z,2348.00
2018-09-01T11:48:02.636Z,1332.00
2018-09-01T11:49:02.613Z,1080.00
2018-09-01T11:50:02.663Z,2312.00
2018-09-01T11:51:02.577Z,2828.00
2018-09-01T11:52:02.571Z,2808.00
2018-09-01T11:53:02.584Z,2796.00
2018-09-01T11:54:02.563Z,2816.00
2018-09-01T11:55:02.507Z,1296.00
2018-09-01T11:56:02.492Z,2828.00
2018-09-01T11:57:02.476Z,2828.00
2018-09-01T11:58:02.466Z,2180.00
2018-09-01T11:59:02.445Z,2452.00
2018-09-01T12:00:02.429Z,1084.00
2018-09-01T12:01:02.410Z,980.00
2018-09-01T12:02:02.469Z,932.00
2018-09-01T12:03:02.380Z,944.00
2018-09-01T12:04:02.367Z,968.00
2018-09-01T12:05:02.351Z,988.00
2018-09-01T12:06:02.353Z,1064.00
2018-09-01T12:07:02.321Z,1268.00
2018-09-01T12:08:02.301Z,1128.00
2018-09-01T12:09:02.330Z,988.00
2018-09-01T12:10:02.275Z,944.00
2018-09-01T12:11:02.255Z,928.00
2018-09-01T12:12:02.240Z,916.00
2018-09-01T12:13:02.222Z,876.00
2018-09-01T12:14:02.215Z,860.00
2018-09-01T12:15:02.189Z,844.00
2018-09-01T12:16:02.173Z,836.00
2018-09-01T12:17:02.158Z,828.00
2018-09-01T12:18:02.141Z,828.00
2018-09-01T12:19:02.127Z,860.00
2018-09-01T12:20:02.114Z,1160.00
2018-09-01T12:21:02.093Z,1192.00
2018-09-01T12:22:02.077Z,1652.00
2018-09-01T12:23:02.063Z,2344.00
2018-09-01T12:24:02.050Z,2292.00
2018-09-01T12:25:02.033Z,2280.00
2018-09-01T12:26:02.021Z,2264.00
2018-09-01T12:27:02.000Z,2264.00
2018-09-01T12:28:01.984Z,2252.00
2018-09-01T12:29:01.960Z,2244.00
2018-09-01T12:30:01.944Z,2240.00
2018-09-01T12:31:01.934Z,2248.00
2018-09-01T12:32:01.915Z,2264.00
2018-09-01T12:33:01.901Z,2272.00
2018-09-01T12:34:01.881Z,2276.00
2018-09-01T12:35:01.866Z,2288.00
2018-09-01T12:36:01.852Z,2296.00
2018-09-01T12:37:01.835Z,2296.00
2018-09-01T12:38:01.815Z,2324.00
2018-09-01T12:39:01.801Z,2328.00
2018-09-01T12:40:01.782Z,2292.00
2018-09-01T12:41:01.767Z,2268.00